Turvania, Brazil
Current Conditions -  °F | °C
As of 8:00 PM on Tuesday 21 Oct 2014 (Local Time) from SBGO Reporting Station
Clear Clear  
Wind Chill: 90°   Ceiling: Unl
Heat Index: 90°   Visibility: 6mi
Dew Point: 52°   Wind: 9mph
Humidity: 27%   Direction: 170°S
Pressure: 29.91"   Gusts: NA
Location:  16.61°S, 50.13°W
Report Text: SBGO 212200Z 17008KT CAVOK 32/11 Q1013
Loading
Personal Weather Stations






























Interactive Weather Map New forecast layout! Learn more

10-Day Weather Forecast

Advertisements
Track Severe Weather on mobile